Time;durP1;ratioP1;P1;durP2;ratioP2;P2;SDS_P1;SDS_P2;PMS_P1;PMS_P2;Temp;Humidity;BMP_temperature;BMP_pressure;BME280_temperature;BME280_humidity;BME280_pressure;Samples;Min_cycle;Max_cycle;Signal;HPM_P1;HPM_P2
2024/01/29 00:01:26;;;;;;;;;;;;;;;;;;5010060;28;19917;-84
2024/01/29 00:03:51;;;;;;;;;;;;;;;;;;4994486;28;19909;-84
2024/01/29 00:06:16;;;;;;;;;;;;;;;;;;4973173;28;19920;-84
2024/01/29 00:08:42;;;;;;;;;;;;;;;;;;5011174;28;19913;-84
2024/01/29 00:11:07;;;;;;;;;;;;;;;;;;5008496;28;19966;-84
2024/01/29 00:13:34;;;;;;;;;;;;;;;;;;5010274;28;19909;-84
2024/01/29 00:15:59;;;;;;;;;;;;;;;;;;5009896;28;20002;-84
2024/01/29 00:18:25;;;;;;;;;;;;;;;;;;4998122;28;19945;-84
2024/01/29 00:20:50;;;;;;;;;;;;;;;;;;4995311;28;19924;-84
2024/01/29 00:23:16;;;;;;;;;;;;;;;;;;4997346;28;19916;-84
2024/01/29 00:25:41;;;;;;;;;;;;;;;;;;4978320;28;19913;-84
2024/01/29 00:28:07;;;;;;;;;;;;;;;;;;4996578;28;19949;-84
2024/01/29 00:30:32;;;;;;;;;;;;;;;;;;4996009;28;19917;-84
2024/01/29 00:32:57;;;;;;;;;;;;;;;;;;4978971;28;19916;-84
2024/01/29 00:35:23;;;;;;;;;;;;;;;;;;4994716;28;19913;-84
2024/01/29 00:37:49;;;;;;;;;;;;;;;;;;4996737;28;20336;-83
2024/01/29 00:40:15;;;;;;;;;;;;;;;;;;4994811;28;19918;-84
2024/01/29 00:42:40;;;;;;;;;;;;;;;;;;4994701;28;19909;-86
2024/01/29 00:45:09;;;;;;;;;;;;;;;;;;4996387;28;19913;-84
2024/01/29 00:47:34;;;;;;;;;;;;;;;;;;4996311;28;19909;-83
2024/01/29 00:50:00;;;;;;;;;;;;;;;;;;4995397;28;19914;-84
2024/01/29 00:52:26;;;;;;;;;;;;;;;;;;4996219;28;19917;-84
2024/01/29 00:54:54;;;;;;;;;;;;;;;;;;4995485;28;19922;-84
2024/01/29 00:57:20;;;;;;;;;;;;;;;;;;4994900;28;19952;-84
2024/01/29 00:59:46;;;;;;;;;;;;;;;;;;5007210;28;19921;-84
2024/01/29 01:02:11;;;;;;;;;;;;;;;;;;4978346;28;19976;-84
2024/01/29 01:04:37;;;;;;;;;;;;;;;;;;4996100;28;19914;-84
2024/01/29 01:07:04;;;;;;;;;;;;;;;;;;4978536;28;19932;-84
2024/01/29 01:09:29;;;;;;;;;;;;;;;;;;4994936;28;20427;-84
2024/01/29 01:11:55;;;;;;;;;;;;;;;;;;4992124;28;19910;-84
2024/01/29 01:14:22;;;;;;;;;;;;;;;;;;4995316;28;19921;-84
2024/01/29 01:16:48;;;;;;;;;;;;;;;;;;4994703;28;19910;-84
2024/01/29 01:19:14;;;;;;;;;;;;;;;;;;4974852;28;19918;-84
2024/01/29 01:21:39;;;;;;;;;;;;;;;;;;4988416;28;20296;-84
2024/01/29 01:24:06;;;;;;;;;;;;;;;;;;4995446;28;19965;-84
2024/01/29 01:26:31;;;;;;;;;;;;;;;;;;4978145;28;19916;-84
2024/01/29 01:28:57;;;;;;;;;;;;;;;;;;4998912;28;20388;-84
2024/01/29 01:31:22;;;;;;;;;;;;;;;;;;5011667;28;19935;-84
2024/01/29 01:33:47;;;;;;;;;;;;;;;;;;5010991;28;20372;-84
2024/01/29 01:36:13;;;;;;;;;;;;;;;;;;5002998;28;20000;-84
2024/01/29 01:38:38;;;;;;;;;;;;;;;;;;4991464;28;19966;-85
2024/01/29 01:41:03;;;;;;;;;;;;;;;;;;5011671;28;19913;-84
2024/01/29 01:43:29;;;;;;;;;;;;;;;;;;5008043;28;19921;-84
2024/01/29 01:45:54;;;;;;;;;;;;;;;;;;4996251;28;20368;-84
2024/01/29 01:48:20;;;;;;;;;;;;;;;;;;4997203;28;20292;-84
2024/01/29 01:50:45;;;;;;;;;;;;;;;;;;4997758;28;19910;-84
2024/01/29 01:53:11;;;;;;;;;;;;;;;;;;4996459;28;19913;-84
2024/01/29 01:55:36;;;;;;;;;;;;;;;;;;4981019;28;19960;-84
2024/01/29 01:58:01;;;;;;;;;;;;;;;;;;4979569;28;19917;-84
2024/01/29 02:00:26;;;;;;;;;;;;;;;;;;4997786;28;19917;-84
2024/01/29 02:02:52;;;;;;;;;;;;;;;;;;4996004;28;19921;-84
2024/01/29 02:05:17;;;;;;;;;;;;;;;;;;4994113;28;19952;-84
2024/01/29 02:07:43;;;;;;;;;;;;;;;;;;4992768;28;19913;-84
2024/01/29 02:10:08;;;;;;;;;;;;;;;;;;4979161;28;20020;-84
2024/01/29 02:12:33;;;;;;;;;;;;;;;;;;4995491;28;19914;-84
2024/01/29 02:14:59;;;;;;;;;;;;;;;;;;4993773;28;20361;-84
2024/01/29 02:17:24;;;;;;;;;;;;;;;;;;4999036;28;20345;-84
2024/01/29 02:19:50;;;;;;;;;;;;;;;;;;4977371;28;19914;-84
2024/01/29 02:22:15;;;;;;;;;;;;;;;;;;4991225;28;20000;-84
2024/01/29 02:24:40;;;;;;;;;;;;;;;;;;4992172;28;20008;-84
2024/01/29 02:27:07;;;;;;;;;;;;;;;;;;4994714;28;20011;-84
2024/01/29 02:29:32;;;;;;;;;;;;;;;;;;4989435;28;20179;-84
2024/01/29 02:31:57;;;;;;;;;;;;;;;;;;4994806;28;19952;-84
2024/01/29 02:34:23;;;;;;;;;;;;;;;;;;4977060;28;19910;-84
2024/01/29 02:36:48;;;;;;;;;;;;;;;;;;4976292;28;19921;-84
2024/01/29 02:39:13;;;;;;;;;;;;;;;;;;4992367;28;19968;-84
2024/01/29 02:41:39;;;;;;;;;;;;;;;;;;4991464;28;19913;-83
2024/01/29 02:44:14;;;;;;;;;;;;;;;;;;4976663;28;20324;-84
2024/01/29 02:46:40;;;;;;;;;;;;;;;;;;4996645;28;20387;-84
2024/01/29 02:49:05;;;;;;;;;;;;;;;;;;4995513;28;19910;-84
2024/01/29 02:51:31;;;;;;;;;;;;;;;;;;4997766;28;19976;-85
2024/01/29 02:53:56;;;;;;;;;;;;;;;;;;4998210;28;19910;-85
2024/01/29 02:56:22;;;;;;;;;;;;;;;;;;4994958;28;20310;-85
2024/01/29 02:58:47;;;;;;;;;;;;;;;;;;4992516;28;19920;-84
2024/01/29 03:01:12;;;;;;;;;;;;;;;;;;4992455;28;19936;-85
2024/01/29 03:03:38;;;;;;;;;;;;;;;;;;4995217;28;19910;-85
2024/01/29 03:06:03;;;;;;;;;;;;;;;;;;4995017;28;19914;-85
2024/01/29 03:08:28;;;;;;;;;;;;;;;;;;4995631;28;19913;-84
2024/01/29 03:10:54;;;;;;;;;;;;;;;;;;4999239;28;20607;-85
2024/01/29 03:13:19;;;;;;;;;;;;;;;;;;4996939;28;19917;-84
2024/01/29 03:15:45;;;;;;;;;;;;;;;;;;5004304;28;19914;-85
2024/01/29 03:18:10;;;;;;;;;;;;;;;;;;4998247;28;19909;-85
2024/01/29 03:20:35;;;;;;;;;;;;;;;;;;4998416;28;20012;-84
2024/01/29 03:23:01;;;;;;;;;;;;;;;;;;4996486;28;19909;-85
2024/01/29 03:25:26;;;;;;;;;;;;;;;;;;4979824;28;19913;-84
2024/01/29 03:27:51;;;;;;;;;;;;;;;;;;4996559;28;19910;-84
2024/01/29 03:30:17;;;;;;;;;;;;;;;;;;4997329;28;19920;-84
2024/01/29 03:32:42;;;;;;;;;;;;;;;;;;4997254;28;19921;-84
2024/01/29 03:35:08;;;;;;;;;;;;;;;;;;4980258;28;19913;-84
2024/01/29 03:37:33;;;;;;;;;;;;;;;;;;5011898;28;19935;-84
2024/01/29 03:39:58;;;;;;;;;;;;;;;;;;5024470;28;19918;-84
2024/01/29 03:42:24;;;;;;;;;;;;;;;;;;4979477;28;19910;-84
2024/01/29 03:44:49;;;;;;;;;;;;;;;;;;4997673;28;19914;-84
2024/01/29 03:47:14;;;;;;;;;;;;;;;;;;4995904;28;19909;-85
2024/01/29 03:49:40;;;;;;;;;;;;;;;;;;4998642;28;19914;-84
2024/01/29 03:52:05;;;;;;;;;;;;;;;;;;4980568;28;19910;-84
2024/01/29 03:54:30;;;;;;;;;;;;;;;;;;4979590;28;19952;-84
2024/01/29 03:56:56;;;;;;;;;;;;;;;;;;4980490;28;19913;-84
2024/01/29 03:59:21;;;;;;;;;;;;;;;;;;4996212;28;19925;-83
2024/01/29 04:01:46;;;;;;;;;;;;;;;;;;4996857;28;19909;-84
2024/01/29 04:04:12;;;;;;;;;;;;;;;;;;5006185;28;19917;-84
2024/01/29 04:06:37;;;;;;;;;;;;;;;;;;4996351;28;19910;-85
2024/01/29 04:09:02;;;;;;;;;;;;;;;;;;5005990;28;19921;-85
2024/01/29 04:11:28;;;;;;;;;;;;;;;;;;4996535;28;19914;-85
2024/01/29 04:13:53;;;;;;;;;;;;;;;;;;4996802;28;20395;-85
2024/01/29 04:16:18;;;;;;;;;;;;;;;;;;5005560;28;19971;-85
2024/01/29 04:18:44;;;;;;;;;;;;;;;;;;4994378;28;19913;-85
2024/01/29 04:21:09;;;;;;;;;;;;;;;;;;4988366;28;19957;-85
2024/01/29 04:23:35;;;;;;;;;;;;;;;;;;4999016;28;20476;-86
2024/01/29 04:26:01;;;;;;;;;;;;;;;;;;4992660;28;19913;-85
2024/01/29 04:28:28;;;;;;;;;;;;;;;;;;4995266;28;20380;-85
2024/01/29 04:30:54;;;;;;;;;;;;;;;;;;4989424;28;19964;-84
2024/01/29 04:33:19;;;;;;;;;;;;;;;;;;5000268;28;19960;-86
2024/01/29 04:35:44;;;;;;;;;;;;;;;;;;4981397;28;19910;-82
2024/01/29 04:38:10;;;;;;;;;;;;;;;;;;5000077;28;20008;-84
2024/01/29 04:40:39;;;;;;;;;;;;;;;;;;4981270;28;19913;-84
2024/01/29 04:43:04;;;;;;;;;;;;;;;;;;4998005;28;19913;-84
2024/01/29 04:45:29;;;;;;;;;;;;;;;;;;4978724;28;19909;-84
2024/01/29 04:47:55;;;;;;;;;;;;;;;;;;4998435;28;19914;-85
2024/01/29 04:50:20;;;;;;;;;;;;;;;;;;5015902;28;19910;-83
2024/01/29 04:52:45;;;;;;;;;;;;;;;;;;5008873;28;19913;-85
2024/01/29 04:55:12;;;;;;;;;;;;;;;;;;5000444;28;19917;-85
2024/01/29 04:57:37;;;;;;;;;;;;;;;;;;5004628;28;19918;-85
2024/01/29 05:00:03;;;;;;;;;;;;;;;;;;5000173;28;20270;-85
2024/01/29 05:02:30;;;;;;;;;;;;;;;;;;5004449;28;20051;-84
2024/01/29 05:04:55;;;;;;;;;;;;;;;;;;5014198;28;19952;-84
2024/01/29 05:07:20;;;;;;;;;;;;;;;;;;4995264;28;19921;-84
2024/01/29 05:09:46;;;;;;;;;;;;;;;;;;4990669;28;19917;-84
2024/01/29 05:12:11;;;;;;;;;;;;;;;;;;4983373;28;19921;-83
2024/01/29 05:14:36;;;;;;;;;;;;;;;;;;5003512;28;19952;-84
2024/01/29 05:17:02;;;;;;;;;;;;;;;;;;5002390;28;19917;-84
2024/01/29 05:19:27;;;;;;;;;;;;;;;;;;4974902;28;19968;-84
2024/01/29 05:21:53;;;;;;;;;;;;;;;;;;4989006;28;20304;-84
2024/01/29 05:24:18;;;;;;;;;;;;;;;;;;4973857;28;19939;-84
2024/01/29 05:26:43;;;;;;;;;;;;;;;;;;4990291;28;19913;-84
2024/01/29 05:29:09;;;;;;;;;;;;;;;;;;4975164;28;19941;-83
2024/01/29 05:31:34;;;;;;;;;;;;;;;;;;4992722;28;19920;-83
2024/01/29 05:33:59;;;;;;;;;;;;;;;;;;4993513;28;20296;-84
2024/01/29 05:36:25;;;;;;;;;;;;;;;;;;4994281;28;19913;-83
2024/01/29 05:38:50;;;;;;;;;;;;;;;;;;4993376;28;20048;-83
2024/01/29 05:41:15;;;;;;;;;;;;;;;;;;4993717;28;20442;-83
2024/01/29 05:43:56;;;;;;;;;;;;;;;;;;5078296;27;20055;-85
2024/01/29 05:46:21;;;;;;;;;;;;;;;;;;5086780;28;20474;-83
2024/01/29 05:48:46;;;;;;;;;;;;;;;;;;5088225;28;19922;-83
2024/01/29 05:51:12;;;;;;;;;;;;;;;;;;5088255;28;20031;-83
2024/01/29 05:53:37;;;;;;;;;;;;;;;;;;5085062;28;19917;-84
2024/01/29 05:56:03;;;;;;;;;;;;;;;;;;5069241;28;19916;-84
2024/01/29 05:58:32;;;;;;;;;;;;;;;;;;5068532;28;19913;-84
2024/01/29 06:00:59;;;;;;;;;;;;;;;;;;5087454;28;19962;-85
2024/01/29 06:03:24;;;;;;;;;;;;;;;;;;5086573;28;19921;-85
2024/01/29 06:05:50;;;;;;;;;;;;;;;;;;5082725;28;19923;-84
2024/01/29 06:08:15;;;;;;;;;;;;;;;;;;5088168;28;20295;-85
2024/01/29 06:10:40;;;;;;;;;;;;;;;;;;5082970;28;19944;-85
2024/01/29 06:13:06;;;;;;;;;;;;;;;;;;5086218;28;19965;-84
2024/01/29 06:15:31;;;;;;;;;;;;;;;;;;5085542;28;19917;-85
2024/01/29 06:17:56;;;;;;;;;;;;;;;;;;5087522;28;19916;-84
2024/01/29 06:20:22;;;;;;;;;;;;;;;;;;5085373;28;19946;-85
2024/01/29 06:22:47;;;;;;;;;;;;;;;;;;5087375;28;19920;-85
2024/01/29 06:25:12;;;;;;;;;;;;;;;;;;5085495;28;20013;-83
2024/01/29 06:27:38;;;;;;;;;;;;;;;;;;5087638;28;19912;-84
2024/01/29 06:30:03;;;;;;;;;;;;;;;;;;5086094;28;19916;-83
2024/01/29 06:32:29;;;;;;;;;;;;;;;;;;5087406;28;19963;-83
2024/01/29 06:34:57;;;;;;;;;;;;;;;;;;5086302;28;19952;-85
2024/01/29 06:37:22;;;;;;;;;;;;;;;;;;5085374;28;19916;-83
2024/01/29 06:39:47;;;;;;;;;;;;;;;;;;5087804;28;20436;-83
2024/01/29 06:42:13;;;;;;;;;;;;;;;;;;5086055;28;19929;-84
2024/01/29 06:44:38;;;;;;;;;;;;;;;;;;5087691;28;19967;-84
2024/01/29 06:47:04;;;;;;;;;;;;;;;;;;5086528;28;19956;-83
2024/01/29 06:49:30;;;;;;;;;;;;;;;;;;5085275;28;19985;-83
2024/01/29 06:51:55;;;;;;;;;;;;;;;;;;5087467;28;20003;-84
2024/01/29 06:54:21;;;;;;;;;;;;;;;;;;5077455;28;19947;-84
2024/01/29 06:56:46;;;;;;;;;;;;;;;;;;5072363;28;19913;-84
2024/01/29 06:59:12;;;;;;;;;;;;;;;;;;5072320;28;19916;-84
2024/01/29 07:01:37;;;;;;;;;;;;;;;;;;5056197;28;19999;-84
2024/01/29 07:04:03;;;;;;;;;;;;;;;;;;5073330;28;19923;-83
2024/01/29 07:06:29;;;;;;;;;;;;;;;;;;5070772;28;19913;-84
2024/01/29 07:08:54;;;;;;;;;;;;;;;;;;5066840;28;19995;-83
2024/01/29 07:11:19;;;;;;;;;;;;;;;;;;5055275;28;19913;-83
2024/01/29 07:13:45;;;;;;;;;;;;;;;;;;5071880;28;19916;-83
2024/01/29 07:16:10;;;;;;;;;;;;;;;;;;5072330;28;19912;-83
2024/01/29 07:18:36;;;;;;;;;;;;;;;;;;5071884;28;19917;-84
2024/01/29 07:21:02;;;;;;;;;;;;;;;;;;5054662;28;19943;-85
2024/01/29 07:23:28;;;;;;;;;;;;;;;;;;5055018;28;19924;-85
2024/01/29 07:25:53;;;;;;;;;;;;;;;;;;5055350;28;20302;-84
2024/01/29 07:28:18;;;;;;;;;;;;;;;;;;5071797;28;20426;-84
2024/01/29 07:30:44;;;;;;;;;;;;;;;;;;5071751;28;19916;-84
2024/01/29 07:33:11;;;;;;;;;;;;;;;;;;5054451;28;20007;-84
2024/01/29 07:35:36;;;;;;;;;;;;;;;;;;5072777;28;19978;-83
2024/01/29 07:38:03;;;;;;;;;;;;;;;;;;5071321;28;19952;-83
2024/01/29 07:40:28;;;;;;;;;;;;;;;;;;5072790;28;19954;-84
2024/01/29 07:42:54;;;;;;;;;;;;;;;;;;5082402;28;19932;-84
2024/01/29 07:45:19;;;;;;;;;;;;;;;;;;5044732;28;19912;-84
2024/01/29 07:47:45;;;;;;;;;;;;;;;;;;5056451;28;19940;-85
2024/01/29 07:50:10;;;;;;;;;;;;;;;;;;5071948;28;20370;-85
2024/01/29 07:52:36;;;;;;;;;;;;;;;;;;5067162;28;19955;-85
2024/01/29 07:55:01;;;;;;;;;;;;;;;;;;5054894;28;19969;-86
2024/01/29 07:57:27;;;;;;;;;;;;;;;;;;5057848;28;20011;-85
2024/01/29 07:59:52;;;;;;;;;;;;;;;;;;5038287;28;19913;-86
2024/01/29 08:02:17;;;;;;;;;;;;;;;;;;5035279;28;19924;-84
2024/01/29 08:04:43;;;;;;;;;;;;;;;;;;5038828;28;20418;-83
2024/01/29 08:07:08;;;;;;;;;;;;;;;;;;5046756;28;19917;-84
2024/01/29 08:09:33;;;;;;;;;;;;;;;;;;5039685;28;19912;-84
2024/01/29 08:11:59;;;;;;;;;;;;;;;;;;5055898;28;20599;-84
2024/01/29 08:14:24;;;;;;;;;;;;;;;;;;5030958;28;19971;-84
2024/01/29 08:16:49;;;;;;;;;;;;;;;;;;5061978;28;19915;-85
2024/01/29 08:19:15;;;;;;;;;;;;;;;;;;5081686;28;19947;-85
2024/01/29 08:21:40;;;;;;;;;;;;;;;;;;5056747;28;19924;-84
2024/01/29 08:24:05;;;;;;;;;;;;;;;;;;5080337;28;19920;-85
2024/01/29 08:26:31;;;;;;;;;;;;;;;;;;5081457;28;19920;-85
2024/01/29 08:28:56;;;;;;;;;;;;;;;;;;5060834;28;20283;-84
2024/01/29 08:31:22;;;;;;;;;;;;;;;;;;5062450;28;19917;-85
2024/01/29 08:33:47;;;;;;;;;;;;;;;;;;5043988;28;19917;-84
2024/01/29 08:36:14;;;;;;;;;;;;;;;;;;5079884;28;19944;-84
2024/01/29 08:38:39;;;;;;;;;;;;;;;;;;5058303;28;19919;-84
2024/01/29 08:41:04;;;;;;;;;;;;;;;;;;5035949;28;20383;-84
2024/01/29 08:43:30;;;;;;;;;;;;;;;;;;5071643;28;19929;-84
2024/01/29 08:45:55;;;;;;;;;;;;;;;;;;5060636;28;19947;-84
2024/01/29 08:48:20;;;;;;;;;;;;;;;;;;5069895;28;19948;-85
2024/01/29 08:50:46;;;;;;;;;;;;;;;;;;5070074;28;20007;-85
2024/01/29 08:53:11;;;;;;;;;;;;;;;;;;5069910;28;19912;-84
2024/01/29 08:55:36;;;;;;;;;;;;;;;;;;5052642;28;20357;-85
2024/01/29 08:58:02;;;;;;;;;;;;;;;;;;5069947;28;19912;-85
2024/01/29 09:00:27;;;;;;;;;;;;;;;;;;5070826;28;20371;-84
2024/01/29 09:02:52;;;;;;;;;;;;;;;;;;5069155;28;19966;-84
2024/01/29 09:05:18;;;;;;;;;;;;;;;;;;5062667;28;19924;-84
2024/01/29 09:07:43;;;;;;;;;;;;;;;;;;5070112;28;19923;-84
2024/01/29 09:10:09;;;;;;;;;;;;;;;;;;5070313;28;19916;-84
2024/01/29 09:12:34;;;;;;;;;;;;;;;;;;5068809;28;19913;-84
2024/01/29 09:15:01;;;;;;;;;;;;;;;;;;5068392;28;20445;-84
2024/01/29 09:17:27;;;;;;;;;;;;;;;;;;5067721;28;19969;-85
2024/01/29 09:19:52;;;;;;;;;;;;;;;;;;5063591;28;20412;-84
2024/01/29 09:22:17;;;;;;;;;;;;;;;;;;5060597;28;19917;-86
2024/01/29 09:24:43;;;;;;;;;;;;;;;;;;5052731;28;20329;-84
2024/01/29 09:27:08;;;;;;;;;;;;;;;;;;5070175;28;20295;-86
2024/01/29 09:29:33;;;;;;;;;;;;;;;;;;5069108;28;19917;-84
2024/01/29 09:31:59;;;;;;;;;;;;;;;;;;5052059;28;20351;-84
2024/01/29 09:34:25;;;;;;;;;;;;;;;;;;5068325;28;19916;-85
2024/01/29 09:36:50;;;;;;;;;;;;;;;;;;5068555;28;19919;-85
2024/01/29 09:39:15;;;;;;;;;;;;;;;;;;5051736;28;20015;-85
2024/01/29 09:41:42;;;;;;;;;;;;;;;;;;5068578;28;19916;-85
2024/01/29 09:44:09;;;;;;;;;;;;;;;;;;5031793;28;20258;-85
2024/01/29 09:46:34;;;;;;;;;;;;;;;;;;5078951;28;19912;-85
2024/01/29 09:49:00;;;;;;;;;;;;;;;;;;5040386;28;19916;-84
2024/01/29 09:51:25;;;;;;;;;;;;;;;;;;5043760;28;20447;-85
2024/01/29 09:53:51;;;;;;;;;;;;;;;;;;5040195;28;19917;-85
2024/01/29 09:56:16;;;;;;;;;;;;;;;;;;5059094;28;19919;-85
2024/01/29 09:58:41;;;;;;;;;;;;;;;;;;5075093;28;19926;-85
2024/01/29 10:01:09;;;;;;;;;;;;;;;;;;5044334;28;19951;-84
2024/01/29 10:03:34;;;;;;;;;;;;;;;;;;5058203;28;19920;-85
2024/01/29 10:06:00;;;;;;;;;;;;;;;;;;5056166;28;19912;-84
2024/01/29 10:08:25;;;;;;;;;;;;;;;;;;5041560;28;19943;-84
2024/01/29 10:10:50;;;;;;;;;;;;;;;;;;5058460;28;20420;-84
2024/01/29 10:13:16;;;;;;;;;;;;;;;;;;5040561;28;19917;-84
2024/01/29 10:15:42;;;;;;;;;;;;;;;;;;5040884;28;19913;-84
2024/01/29 10:18:07;;;;;;;;;;;;;;;;;;5039901;28;20003;-84
2024/01/29 10:20:32;;;;;;;;;;;;;;;;;;5075017;28;19913;-85
2024/01/29 10:22:58;;;;;;;;;;;;;;;;;;5087789;28;19985;-83
2024/01/29 10:25:23;;;;;;;;;;;;;;;;;;5055347;28;20030;-85
2024/01/29 10:27:48;;;;;;;;;;;;;;;;;;5083871;28;19924;-84
2024/01/29 10:30:13;;;;;;;;;;;;;;;;;;5078195;28;19916;-86
2024/01/29 10:32:39;;;;;;;;;;;;;;;;;;5062249;28;19916;-84
2024/01/29 10:35:04;;;;;;;;;;;;;;;;;;5079830;28;20671;-86
2024/01/29 10:37:30;;;;;;;;;;;;;;;;;;5067265;28;20003;-84
2024/01/29 10:39:55;;;;;;;;;;;;;;;;;;5039942;28;19912;-84
2024/01/29 10:42:21;;;;;;;;;;;;;;;;;;5065501;28;20387;-85
2024/01/29 10:44:46;;;;;;;;;;;;;;;;;;5056304;28;19912;-84
2024/01/29 10:47:11;;;;;;;;;;;;;;;;;;5074397;28;19916;-86
2024/01/29 10:49:37;;;;;;;;;;;;;;;;;;5071952;28;19981;-83
2024/01/29 10:52:02;;;;;;;;;;;;;;;;;;5074363;28;19962;-83
2024/01/29 10:54:27;;;;;;;;;;;;;;;;;;5055968;28;19973;-83
2024/01/29 10:56:53;;;;;;;;;;;;;;;;;;5072816;28;19974;-85
2024/01/29 10:59:20;;;;;;;;;;;;;;;;;;5072991;28;19965;-85
2024/01/29 11:01:45;;;;;;;;;;;;;;;;;;5071979;28;20346;-85
2024/01/29 11:04:10;;;;;;;;;;;;;;;;;;5055360;28;20030;-85
2024/01/29 11:06:36;;;;;;;;;;;;;;;;;;5071603;28;20066;-84
2024/01/29 11:09:01;;;;;;;;;;;;;;;;;;5070653;28;19912;-85
2024/01/29 11:11:29;;;;;;;;;;;;;;;;;;5072982;28;20425;-85
2024/01/29 11:13:55;;;;;;;;;;;;;;;;;;5074456;28;19912;-85
2024/01/29 11:16:20;;;;;;;;;;;;;;;;;;5072852;28;19916;-85
2024/01/29 11:18:45;;;;;;;;;;;;;;;;;;5068622;28;19963;-86
2024/01/29 11:21:11;;;;;;;;;;;;;;;;;;5055706;28;19922;-83
2024/01/29 11:23:37;;;;;;;;;;;;;;;;;;5072463;28;19916;-85
2024/01/29 11:26:04;;;;;;;;;;;;;;;;;;5073624;28;19916;-83
2024/01/29 11:28:29;;;;;;;;;;;;;;;;;;5073931;28;20011;-85
2024/01/29 11:30:54;;;;;;;;;;;;;;;;;;5073890;28;20376;-84
2024/01/29 11:33:20;;;;;;;;;;;;;;;;;;5072976;28;19979;-85
2024/01/29 11:35:45;;;;;;;;;;;;;;;;;;5072453;28;19916;-86
2024/01/29 11:38:11;;;;;;;;;;;;;;;;;;5071272;28;19927;-85
2024/01/29 11:40:40;;;;;;;;;;;;;;;;;;5072115;28;19928;-85
2024/01/29 11:43:06;;;;;;;;;;;;;;;;;;5069803;28;20460;-84
2024/01/29 11:45:31;;;;;;;;;;;;;;;;;;5070651;28;20019;-85
2024/01/29 11:47:56;;;;;;;;;;;;;;;;;;5055354;28;19938;-86
2024/01/29 11:50:22;;;;;;;;;;;;;;;;;;5071349;28;20313;-84
2024/01/29 11:52:47;;;;;;;;;;;;;;;;;;5054870;28;19923;-85
2024/01/29 11:55:14;;;;;;;;;;;;;;;;;;5073535;28;19916;-85
2024/01/29 11:57:39;;;;;;;;;;;;;;;;;;5072583;28;19935;-86
2024/01/29 12:00:05;;;;;;;;;;;;;;;;;;5071777;28;19921;-85
2024/01/29 12:02:31;;;;;;;;;;;;;;;;;;5073667;28;20096;-85
2024/01/29 12:04:56;;;;;;;;;;;;;;;;;;5056029;28;19920;-84
2024/01/29 12:07:21;;;;;;;;;;;;;;;;;;5071557;28;20405;-85
2024/01/29 12:09:46;;;;;;;;;;;;;;;;;;5072613;28;19974;-85
2024/01/29 12:12:12;;;;;;;;;;;;;;;;;;5071138;28;19920;-85
2024/01/29 12:14:37;;;;;;;;;;;;;;;;;;5072709;28;19966;-86
2024/01/29 12:17:05;;;;;;;;;;;;;;;;;;5053843;28;20442;-84
2024/01/29 12:19:30;;;;;;;;;;;;;;;;;;5066977;28;19917;-84
2024/01/29 12:21:55;;;;;;;;;;;;;;;;;;5085478;28;19919;-82
2024/01/29 12:24:21;;;;;;;;;;;;;;;;;;5071173;28;19992;-85
2024/01/29 12:26:47;;;;;;;;;;;;;;;;;;5070611;28;20466;-86
2024/01/29 12:29:12;;;;;;;;;;;;;;;;;;5071065;28;20386;-86
2024/01/29 12:31:38;;;;;;;;;;;;;;;;;;5072480;28;19923;-84
2024/01/29 12:34:03;;;;;;;;;;;;;;;;;;5054913;28;19999;-86
2024/01/29 12:36:29;;;;;;;;;;;;;;;;;;5070726;28;19943;-85
2024/01/29 12:38:58;;;;;;;;;;;;;;;;;;5072227;28;20177;-83
2024/01/29 12:41:23;;;;;;;;;;;;;;;;;;5053712;28;19912;-83
2024/01/29 12:43:48;;;;;;;;;;;;;;;;;;5053772;28;19928;-84
2024/01/29 12:46:14;;;;;;;;;;;;;;;;;;5070052;28;20428;-84
2024/01/29 12:48:40;;;;;;;;;;;;;;;;;;5070485;28;20345;-84
2024/01/29 12:51:05;;;;;;;;;;;;;;;;;;5069992;28;19912;-85
2024/01/29 12:53:30;;;;;;;;;;;;;;;;;;5069290;28;20263;-84
2024/01/29 12:55:56;;;;;;;;;;;;;;;;;;5071334;28;19912;-85
2024/01/29 12:58:21;;;;;;;;;;;;;;;;;;5053427;28;20015;-83
2024/01/29 13:00:48;;;;;;;;;;;;;;;;;;5069478;28;19924;-84
2024/01/29 13:03:14;;;;;;;;;;;;;;;;;;5052965;28;20472;-85
2024/01/29 13:05:39;;;;;;;;;;;;;;;;;;5053110;28;19913;-84
2024/01/29 13:08:04;;;;;;;;;;;;;;;;;;5069372;28;19916;-84
2024/01/29 13:10:30;;;;;;;;;;;;;;;;;;5069247;28;19973;-84
2024/01/29 13:12:55;;;;;;;;;;;;;;;;;;5054054;28;20022;-83
2024/01/29 13:15:20;;;;;;;;;;;;;;;;;;5053607;28;19912;-84
2024/01/29 13:17:46;;;;;;;;;;;;;;;;;;5071240;28;19942;-83
2024/01/29 13:20:11;;;;;;;;;;;;;;;;;;5052112;28;19938;-86
2024/01/29 13:22:36;;;;;;;;;;;;;;;;;;5063355;28;19928;-85
2024/01/29 13:25:02;;;;;;;;;;;;;;;;;;5067456;28;19912;-84
2024/01/29 13:27:28;;;;;;;;;;;;;;;;;;5070574;28;20011;-85
2024/01/29 13:29:53;;;;;;;;;;;;;;;;;;5069730;28;19919;-84
2024/01/29 13:32:18;;;;;;;;;;;;;;;;;;5069557;28;20298;-83
2024/01/29 13:34:44;;;;;;;;;;;;;;;;;;5066898;28;20284;-83
2024/01/29 13:37:09;;;;;;;;;;;;;;;;;;5070247;28;19916;-85
2024/01/29 13:39:35;;;;;;;;;;;;;;;;;;5052364;28;20370;-84
2024/01/29 13:42:01;;;;;;;;;;;;;;;;;;5069098;28;19947;-83
2024/01/29 13:44:26;;;;;;;;;;;;;;;;;;5070527;28;19917;-86
2024/01/29 13:46:52;;;;;;;;;;;;;;;;;;5070043;28;19924;-84
2024/01/29 13:49:17;;;;;;;;;;;;;;;;;;5071213;28;19916;-83
2024/01/29 13:51:42;;;;;;;;;;;;;;;;;;5069333;28;20384;-83
2024/01/29 13:54:08;;;;;;;;;;;;;;;;;;5067157;28;19919;-85
2024/01/29 13:56:33;;;;;;;;;;;;;;;;;;5069466;28;19920;-84
2024/01/29 13:58:58;;;;;;;;;;;;;;;;;;5053004;28;19919;-85
2024/01/29 14:01:24;;;;;;;;;;;;;;;;;;5055802;28;19922;-84
2024/01/29 14:03:49;;;;;;;;;;;;;;;;;;5070915;28;19923;-85
2024/01/29 14:06:14;;;;;;;;;;;;;;;;;;5074872;28;19966;-85
2024/01/29 14:08:43;;;;;;;;;;;;;;;;;;5074612;28;19920;-85
2024/01/29 14:11:08;;;;;;;;;;;;;;;;;;5072860;28;19916;-85
2024/01/29 14:13:34;;;;;;;;;;;;;;;;;;5074489;28;19912;-84
2024/01/29 14:16:00;;;;;;;;;;;;;;;;;;5075068;28;19983;-85
2024/01/29 14:18:25;;;;;;;;;;;;;;;;;;5066219;28;19963;-84
2024/01/29 14:20:51;;;;;;;;;;;;;;;;;;5074847;28;19924;-85
2024/01/29 14:23:16;;;;;;;;;;;;;;;;;;5073040;28;19955;-85
2024/01/29 14:25:43;;;;;;;;;;;;;;;;;;5056547;28;19923;-84
2024/01/29 14:28:09;;;;;;;;;;;;;;;;;;5073043;28;19923;-85
2024/01/29 14:30:36;;;;;;;;;;;;;;;;;;5062111;28;20007;-84
2024/01/29 14:33:01;;;;;;;;;;;;;;;;;;5054022;28;19920;-84
2024/01/29 14:35:27;;;;;;;;;;;;;;;;;;5073254;28;20357;-85
2024/01/29 14:37:52;;;;;;;;;;;;;;;;;;5073272;28;19995;-84
2024/01/29 14:40:17;;;;;;;;;;;;;;;;;;5074472;28;19924;-85
2024/01/29 14:42:43;;;;;;;;;;;;;;;;;;5070826;28;19932;-83
2024/01/29 14:45:10;;;;;;;;;;;;;;;;;;5075038;28;19928;-86
2024/01/29 14:47:35;;;;;;;;;;;;;;;;;;5075340;28;20058;-85
2024/01/29 14:50:01;;;;;;;;;;;;;;;;;;5070849;28;20480;-85
2024/01/29 14:52:26;;;;;;;;;;;;;;;;;;5075718;28;20384;-84
2024/01/29 14:54:51;;;;;;;;;;;;;;;;;;5075181;28;19917;-86
2024/01/29 14:57:17;;;;;;;;;;;;;;;;;;5058258;28;19987;-86
2024/01/29 14:59:43;;;;;;;;;;;;;;;;;;5076288;28;20467;-85
2024/01/29 15:02:08;;;;;;;;;;;;;;;;;;5075653;28;19948;-87
2024/01/29 15:04:33;;;;;;;;;;;;;;;;;;5058858;28;20359;-86
2024/01/29 15:06:59;;;;;;;;;;;;;;;;;;5058314;28;19955;-85
2024/01/29 15:09:24;;;;;;;;;;;;;;;;;;5070619;28;19920;-88
2024/01/29 15:11:49;;;;;;;;;;;;;;;;;;5076669;28;20035;-87
2024/01/29 15:14:15;;;;;;;;;;;;;;;;;;5076473;28;19931;-86
2024/01/29 15:16:40;;;;;;;;;;;;;;;;;;5070378;28;19959;-87
2024/01/29 15:19:05;;;;;;;;;;;;;;;;;;5071020;28;19939;-85
2024/01/29 15:21:31;;;;;;;;;;;;;;;;;;5053455;28;19896;-86
2024/01/29 15:23:57;;;;;;;;;;;;;;;;;;5070663;28;19926;-86
2024/01/29 15:26:23;;;;;;;;;;;;;;;;;;5068539;28;19962;-86
2024/01/29 15:28:48;;;;;;;;;;;;;;;;;;5049804;28;19920;-85
2024/01/29 15:31:13;;;;;;;;;;;;;;;;;;5059558;28;20074;-85
2024/01/29 15:33:39;;;;;;;;;;;;;;;;;;5075191;28;19917;-86
2024/01/29 15:36:04;;;;;;;;;;;;;;;;;;5058944;28;19904;-87
2024/01/29 15:38:29;;;;;;;;;;;;;;;;;;5075246;28;20003;-86
2024/01/29 15:40:55;;;;;;;;;;;;;;;;;;5073241;28;20282;-86
2024/01/29 15:43:20;;;;;;;;;;;;;;;;;;5089788;28;19955;-86
2024/01/29 15:45:47;;;;;;;;;;;;;;;;;;5058425;28;20373;-86
2024/01/29 15:48:13;;;;;;;;;;;;;;;;;;5058016;28;19942;-86
2024/01/29 15:50:38;;;;;;;;;;;;;;;;;;5058573;28;19956;-86
2024/01/29 15:53:04;;;;;;;;;;;;;;;;;;5058092;28;19923;-86
2024/01/29 15:55:29;;;;;;;;;;;;;;;;;;5074907;28;19960;-86
2024/01/29 15:57:54;;;;;;;;;;;;;;;;;;5074622;28;19916;-86
2024/01/29 16:00:20;;;;;;;;;;;;;;;;;;5070691;28;20256;-86
2024/01/29 16:02:46;;;;;;;;;;;;;;;;;;5062402;28;19921;-85
2024/01/29 16:05:11;;;;;;;;;;;;;;;;;;5071610;28;20376;-86
2024/01/29 16:07:37;;;;;;;;;;;;;;;;;;5068100;28;19927;-86
2024/01/29 16:10:03;;;;;;;;;;;;;;;;;;5079134;28;19958;-86
2024/01/29 16:12:29;;;;;;;;;;;;;;;;;;5069026;28;20010;-86
2024/01/29 16:14:54;;;;;;;;;;;;;;;;;;5057820;28;19918;-87
2024/01/29 16:17:19;;;;;;;;;;;;;;;;;;5072729;28;20272;-86
2024/01/29 16:19:45;;;;;;;;;;;;;;;;;;5053505;28;19958;-86
2024/01/29 16:22:10;;;;;;;;;;;;;;;;;;5057098;28;19921;-86
2024/01/29 16:24:35;;;;;;;;;;;;;;;;;;5051377;28;19919;-84
2024/01/29 16:27:01;;;;;;;;;;;;;;;;;;5106666;28;19917;-86
2024/01/29 16:29:26;;;;;;;;;;;;;;;;;;5074011;28;19927;-86
2024/01/29 16:31:52;;;;;;;;;;;;;;;;;;5057530;28;19924;-88
2024/01/29 16:34:17;;;;;;;;;;;;;;;;;;5068406;28;20383;-86